createdAt,value
2023-04-29T00:01:23.916Z,8.21
2023-04-29T00:03:05.341Z,7.38
2023-04-29T00:04:46.891Z,7.24
2023-04-29T00:06:28.532Z,7.13
2023-04-29T00:08:10.116Z,7.15
2023-04-29T00:09:51.604Z,7.31
2023-04-29T00:11:33.007Z,7.28
2023-04-29T00:13:14.297Z,7.38
2023-04-29T00:14:55.582Z,7.45
2023-04-29T00:16:36.877Z,7.84
2023-04-29T00:18:18.243Z,7.64
2023-04-29T00:19:59.531Z,7.28
2023-04-29T00:21:40.803Z,7.24
2023-04-29T00:23:22.110Z,7.50
2023-04-29T00:25:03.365Z,8.02
2023-04-29T00:26:44.650Z,8.07
2023-04-29T00:28:25.978Z,7.87
2023-04-29T00:30:07.338Z,7.98
2023-04-29T00:31:48.675Z,8.59
2023-04-29T00:33:29.996Z,8.40
2023-04-29T00:35:11.300Z,8.43
2023-04-29T00:36:52.643Z,8.18
2023-04-29T00:38:33.930Z,8.26
2023-04-29T00:40:15.280Z,7.95
2023-04-29T00:41:56.651Z,7.83
2023-04-29T00:43:37.944Z,8.10
2023-04-29T00:45:19.242Z,8.26
2023-04-29T00:47:00.554Z,8.07
2023-04-29T00:48:41.852Z,7.84
2023-04-29T00:50:23.135Z,7.84
2023-04-29T00:52:04.428Z,8.08
2023-04-29T00:53:46.593Z,8.54
2023-04-29T00:55:29.242Z,8.87
2023-04-29T00:57:10.576Z,8.03
2023-04-29T00:58:51.895Z,7.63
2023-04-29T01:00:33.170Z,7.66
2023-04-29T01:02:14.483Z,7.96
2023-04-29T01:03:55.965Z,8.46
2023-04-29T01:05:37.335Z,8.83
2023-04-29T01:07:18.640Z,8.96
2023-04-29T01:08:59.971Z,9.13
2023-04-29T01:10:41.296Z,9.33
2023-04-29T01:12:22.591Z,9.12
2023-04-29T01:14:03.927Z,8.47
2023-04-29T01:15:45.256Z,8.13
2023-04-29T01:17:26.604Z,8.15
2023-04-29T01:19:07.914Z,8.44
2023-04-29T01:20:49.286Z,8.79
2023-04-29T01:22:30.556Z,8.94
2023-04-29T01:24:11.866Z,9.21
2023-04-29T01:25:53.203Z,9.02
2023-04-29T01:27:34.539Z,8.04
2023-04-29T01:29:15.870Z,7.92
2023-04-29T01:30:57.217Z,8.40
2023-04-29T01:32:38.559Z,8.83
2023-04-29T01:34:19.920Z,8.98
2023-04-29T01:36:01.260Z,8.60
2023-04-29T01:37:42.549Z,8.05
2023-04-29T01:39:23.854Z,8.20
2023-04-29T01:41:05.526Z,8.59
2023-04-29T01:42:46.805Z,8.88
2023-04-29T01:44:28.101Z,8.62
2023-04-29T01:46:09.441Z,8.51
2023-04-29T01:47:50.782Z,8.54
2023-04-29T01:49:32.060Z,8.14
2023-04-29T01:51:13.348Z,8.26
2023-04-29T01:52:54.605Z,7.86
2023-04-29T01:54:35.876Z,8.15
2023-04-29T01:56:17.159Z,8.22
2023-04-29T01:57:58.416Z,8.65
2023-04-29T01:59:39.714Z,8.27
2023-04-29T02:01:21.092Z,8.04
2023-04-29T02:03:02.493Z,8.07
2023-04-29T02:04:43.894Z,8.27
2023-04-29T02:06:25.248Z,8.14
2023-04-29T02:08:06.626Z,8.36
2023-04-29T02:09:47.890Z,8.78
2023-04-29T02:11:29.166Z,8.49
2023-04-29T02:13:10.504Z,8.63
2023-04-29T02:14:51.799Z,8.59
2023-04-29T02:16:33.196Z,8.92
2023-04-29T02:18:14.596Z,9.29
2023-04-29T02:19:55.985Z,8.89
2023-04-29T02:21:37.295Z,8.61
2023-04-29T02:23:18.620Z,8.47
2023-04-29T02:24:59.904Z,8.78
2023-04-29T02:26:41.227Z,8.80
2023-04-29T02:28:22.573Z,8.78
2023-04-29T02:30:03.856Z,8.27
2023-04-29T02:31:45.187Z,8.27
2023-04-29T02:33:26.560Z,8.40
2023-04-29T02:35:07.873Z,8.77
2023-04-29T02:36:49.264Z,8.91
2023-04-29T02:38:30.543Z,8.61
2023-04-29T02:40:11.843Z,8.06
2023-04-29T02:41:53.117Z,7.89
2023-04-29T02:43:34.459Z,7.99
2023-04-29T02:45:15.743Z,8.08
2023-04-29T02:46:57.067Z,8.32
2023-04-29T02:48:38.407Z,8.78
2023-04-29T02:50:19.676Z,8.58
2023-04-29T02:52:00.985Z,8.83
2023-04-29T02:53:42.273Z,8.96
2023-04-29T02:55:23.596Z,8.86
2023-04-29T02:57:04.887Z,8.80
2023-04-29T02:58:46.177Z,8.85
2023-04-29T03:00:27.526Z,8.94
2023-04-29T03:02:08.862Z,9.20
2023-04-29T03:03:50.335Z,9.22
2023-04-29T03:05:31.807Z,9.14
2023-04-29T03:07:13.080Z,8.71
2023-04-29T03:08:54.360Z,8.82
2023-04-29T03:10:35.667Z,8.53
2023-04-29T03:12:17.002Z,8.59
2023-04-29T03:13:58.285Z,8.54
2023-04-29T03:15:39.589Z,8.53
2023-04-29T03:17:20.872Z,8.23
2023-04-29T03:19:02.177Z,8.05
2023-04-29T03:20:43.488Z,7.94
2023-04-29T03:22:24.758Z,8.43
2023-04-29T03:24:06.130Z,8.73
2023-04-29T03:25:47.450Z,9.10
2023-04-29T03:27:28.771Z,8.89
2023-04-29T03:29:10.095Z,9.14
2023-04-29T03:30:51.422Z,9.25
2023-04-29T03:32:32.701Z,9.34
2023-04-29T03:34:14.013Z,9.29
2023-04-29T03:35:55.378Z,9.34
2023-04-29T03:37:36.661Z,9.47
2023-04-29T03:39:17.924Z,9.49
2023-04-29T03:40:59.219Z,9.55
2023-04-29T03:42:40.501Z,9.53
2023-04-29T03:44:21.757Z,9.55
2023-04-29T03:46:03.112Z,9.66
2023-04-29T03:47:44.491Z,9.68
2023-04-29T03:49:25.844Z,9.66
2023-04-29T03:51:07.152Z,9.37
2023-04-29T03:52:48.446Z,9.47
2023-04-29T03:54:29.776Z,9.77
2023-04-29T03:56:11.089Z,9.43
2023-04-29T03:57:52.400Z,9.19
2023-04-29T03:59:33.691Z,9.12
2023-04-29T04:01:14.980Z,8.94
2023-04-29T04:02:56.511Z,8.86
2023-04-29T04:04:38.027Z,8.71
2023-04-29T04:06:19.417Z,8.72
2023-04-29T04:08:00.770Z,8.78
2023-04-29T04:09:42.099Z,8.82
2023-04-29T04:11:23.382Z,8.85
2023-04-29T04:13:04.689Z,8.19
2023-04-29T04:14:45.980Z,7.40
2023-04-29T04:16:27.340Z,6.70
2023-04-29T04:18:08.690Z,6.76
2023-04-29T04:19:50.254Z,6.59
2023-04-29T04:21:31.700Z,6.37
2023-04-29T04:23:13.008Z,6.23
2023-04-29T04:24:54.300Z,6.41
2023-04-29T04:26:35.617Z,6.30
2023-04-29T04:28:16.945Z,6.46
2023-04-29T04:29:58.250Z,6.46
2023-04-29T04:31:39.581Z,6.51
2023-04-29T04:33:20.959Z,6.38
2023-04-29T04:35:02.299Z,6.74
2023-04-29T04:36:43.622Z,6.93
2023-04-29T04:38:24.929Z,7.45
2023-04-29T04:40:06.226Z,7.90
2023-04-29T04:41:47.520Z,8.09
2023-04-29T04:43:28.800Z,7.92
2023-04-29T04:45:10.114Z,7.46
2023-04-29T04:46:51.412Z,7.60
2023-04-29T04:48:32.680Z,7.93
2023-04-29T04:50:13.962Z,8.23
2023-04-29T04:51:55.255Z,8.40
2023-04-29T04:53:36.516Z,8.61
2023-04-29T04:55:17.822Z,8.42
2023-04-29T04:56:59.120Z,8.24
2023-04-29T04:58:40.418Z,7.94
2023-04-29T05:00:21.724Z,7.91
2023-04-29T05:02:03.052Z,7.86
2023-04-29T05:03:44.621Z,8.22
2023-04-29T05:05:26.006Z,7.76
2023-04-29T05:07:07.329Z,7.82
2023-04-29T05:08:48.608Z,7.75
2023-04-29T05:10:29.902Z,7.78
2023-04-29T05:12:11.187Z,7.44
2023-04-29T05:13:52.477Z,7.70
2023-04-29T05:15:33.780Z,7.54
2023-04-29T05:17:15.056Z,7.95
2023-04-29T05:18:56.366Z,8.00
2023-04-29T05:20:37.660Z,8.06
2023-04-29T05:22:18.942Z,8.22
2023-04-29T05:24:00.226Z,7.99
2023-04-29T05:25:41.599Z,7.63
2023-04-29T05:27:22.862Z,7.37
2023-04-29T05:29:04.137Z,7.41
2023-04-29T05:30:45.482Z,6.91
2023-04-29T05:32:26.812Z,6.85
2023-04-29T05:34:08.104Z,7.03
2023-04-29T05:35:49.445Z,6.54
2023-04-29T05:37:30.792Z,6.72
2023-04-29T05:39:12.144Z,7.06
2023-04-29T05:40:53.464Z,7.44
2023-04-29T05:42:34.782Z,7.75
2023-04-29T05:44:16.102Z,7.98
2023-04-29T05:45:57.562Z,7.87
2023-04-29T05:47:39.002Z,7.99
2023-04-29T05:49:20.395Z,8.09
2023-04-29T05:51:01.688Z,8.11
2023-04-29T05:52:42.992Z,8.46
2023-04-29T05:54:24.260Z,8.40
2023-04-29T05:56:05.529Z,8.40
2023-04-29T05:57:46.826Z,8.77
2023-04-29T05:59:28.103Z,8.92
2023-04-29T06:01:09.392Z,8.50
2023-04-29T06:02:57.993Z,8.43
2023-04-29T06:04:40.983Z,8.58
2023-04-29T06:06:22.722Z,8.50
2023-04-29T06:08:04.121Z,8.25
2023-04-29T06:09:45.462Z,8.34
2023-04-29T06:11:26.781Z,8.17
2023-04-29T06:13:08.081Z,8.30
2023-04-29T06:14:49.374Z,8.26
2023-04-29T06:18:12.034Z,7.45
2023-04-29T06:19:53.574Z,7.19
2023-04-29T06:21:35.099Z,6.91
2023-04-29T06:23:16.437Z,7.15
2023-04-29T06:24:57.751Z,7.09
2023-04-29T06:26:39.085Z,7.19
2023-04-29T06:28:20.417Z,7.38
2023-04-29T06:30:01.705Z,7.50
2023-04-29T06:31:43.181Z,7.59
2023-04-29T06:33:24.521Z,7.58
2023-04-29T06:35:05.835Z,7.86
2023-04-29T06:36:47.222Z,7.93
2023-04-29T06:38:28.509Z,7.89
2023-04-29T06:40:09.776Z,7.86
2023-04-29T06:41:51.050Z,8.08
2023-04-29T06:43:32.345Z,8.47
2023-04-29T06:45:13.692Z,8.47
2023-04-29T06:46:55.048Z,8.15
2023-04-29T06:48:36.381Z,8.18
2023-04-29T06:50:17.747Z,8.21
2023-04-29T06:51:59.053Z,8.26
2023-04-29T06:53:40.317Z,8.58
2023-04-29T06:55:21.648Z,8.50
2023-04-29T06:57:02.955Z,8.43
2023-04-29T06:58:44.232Z,8.00
2023-04-29T07:00:25.679Z,7.87
2023-04-29T07:02:07.096Z,7.94
2023-04-29T07:03:48.532Z,8.11
2023-04-29T07:05:30.022Z,8.34
2023-04-29T07:07:11.341Z,8.36
2023-04-29T07:08:53.756Z,8.84
2023-04-29T07:10:36.782Z,9.24
2023-04-29T07:12:18.110Z,9.32
2023-04-29T07:13:59.407Z,9.68
2023-04-29T07:15:40.676Z,9.91
2023-04-29T07:17:22.056Z,10.02
2023-04-29T07:19:03.367Z,10.06
2023-04-29T07:20:44.654Z,10.00
2023-04-29T07:22:26.043Z,10.26
2023-04-29T07:24:07.365Z,10.41
2023-04-29T07:25:48.680Z,10.53
2023-04-29T07:27:29.987Z,10.52
2023-04-29T07:29:11.264Z,10.30
2023-04-29T07:30:52.546Z,10.36
2023-04-29T07:32:33.981Z,10.62
2023-04-29T07:34:15.302Z,10.68
2023-04-29T07:35:56.616Z,10.78
2023-04-29T07:37:37.910Z,10.80
2023-04-29T07:39:19.188Z,10.46
2023-04-29T07:41:00.497Z,10.11
2023-04-29T07:42:41.817Z,10.11
2023-04-29T07:44:23.110Z,9.70
2023-04-29T07:46:04.419Z,9.82
2023-04-29T07:47:45.789Z,9.43
2023-04-29T07:49:27.120Z,9.23
2023-04-29T07:51:08.429Z,8.93
2023-04-29T07:52:49.721Z,8.32
2023-04-29T07:54:30.992Z,7.49
2023-04-29T07:56:12.322Z,7.25
2023-04-29T07:57:53.646Z,7.45
2023-04-29T07:59:34.986Z,6.96
2023-04-29T08:01:16.404Z,7.04
2023-04-29T08:02:58.055Z,7.20
2023-04-29T08:04:39.659Z,7.15
2023-04-29T08:06:21.305Z,7.21
2023-04-29T08:08:02.590Z,7.07
2023-04-29T08:09:43.869Z,7.01
2023-04-29T08:11:25.210Z,6.84
2023-04-29T08:13:06.511Z,7.48
2023-04-29T08:14:47.772Z,7.75
2023-04-29T08:16:29.241Z,8.04
2023-04-29T08:18:10.708Z,8.01
2023-04-29T08:19:52.041Z,7.97
2023-04-29T08:21:33.342Z,7.81
2023-04-29T08:23:14.655Z,7.27
2023-04-29T08:24:55.943Z,6.76
2023-04-29T08:26:37.258Z,6.38
2023-04-29T08:28:18.611Z,6.31
2023-04-29T08:29:59.894Z,6.44
2023-04-29T08:31:41.264Z,6.47
2023-04-29T08:33:22.621Z,6.46
2023-04-29T08:35:03.933Z,6.59
2023-04-29T08:36:45.629Z,6.52
2023-04-29T08:38:26.945Z,6.55
2023-04-29T08:40:08.246Z,6.43
2023-04-29T08:41:49.573Z,6.66
2023-04-29T08:43:30.856Z,6.77
2023-04-29T08:45:12.167Z,6.51
2023-04-29T08:46:53.447Z,6.57
2023-04-29T08:48:34.875Z,6.80
2023-04-29T08:50:16.214Z,6.89
2023-04-29T08:51:57.513Z,6.64
2023-04-29T08:53:38.809Z,6.89
2023-04-29T08:55:20.154Z,7.12
2023-04-29T08:57:01.482Z,6.94
2023-04-29T08:58:42.799Z,7.26
2023-04-29T09:00:24.112Z,7.54
2023-04-29T09:02:05.411Z,7.22
2023-04-29T09:03:46.965Z,7.45
2023-04-29T09:05:28.421Z,7.83
2023-04-29T09:07:09.865Z,8.00
2023-04-29T09:08:51.149Z,8.11
2023-04-29T09:10:32.433Z,8.59
2023-04-29T09:12:13.734Z,9.05
2023-04-29T09:13:55.044Z,9.34
2023-04-29T09:15:36.385Z,9.74
2023-04-29T09:17:17.794Z,10.08
2023-04-29T09:18:59.243Z,10.32
2023-04-29T09:20:40.549Z,10.50
2023-04-29T09:22:21.871Z,10.74
2023-04-29T09:24:03.146Z,9.66
2023-04-29T09:25:44.499Z,9.88
2023-04-29T09:27:25.784Z,9.51
2023-04-29T09:29:07.105Z,8.64
2023-04-29T09:30:48.455Z,8.58
2023-04-29T09:32:29.759Z,8.64
2023-04-29T09:34:11.091Z,8.70
2023-04-29T09:35:52.408Z,8.84
2023-04-29T09:37:33.678Z,8.48
2023-04-29T09:39:15.009Z,8.33
2023-04-29T09:40:59.656Z,8.63
2023-04-29T09:42:42.482Z,8.58
2023-04-29T09:44:23.807Z,8.50
2023-04-29T09:46:05.199Z,8.69
2023-04-29T09:47:46.580Z,8.73
2023-04-29T09:49:27.914Z,8.62
2023-04-29T09:51:09.219Z,8.44
2023-04-29T09:52:51.336Z,8.61
2023-04-29T09:54:32.630Z,8.88
2023-04-29T09:56:13.947Z,8.78
2023-04-29T09:57:55.227Z,9.00
2023-04-29T09:59:36.536Z,9.02
2023-04-29T10:01:17.973Z,9.36
2023-04-29T10:02:59.392Z,9.33
2023-04-29T10:04:40.822Z,9.03
2023-04-29T10:06:22.283Z,9.37
2023-04-29T10:08:03.591Z,9.33
2023-04-29T10:09:44.880Z,9.05
2023-04-29T10:11:26.183Z,8.88
2023-04-29T10:13:07.467Z,9.14
2023-04-29T10:14:48.743Z,8.76
2023-04-29T10:16:30.398Z,9.07
2023-04-29T10:18:11.910Z,9.16
2023-04-29T10:19:53.224Z,9.18
2023-04-29T10:21:34.511Z,9.31
2023-04-29T10:23:15.840Z,9.23
2023-04-29T10:24:57.138Z,9.93
2023-04-29T10:26:38.539Z,10.02
2023-04-29T10:28:19.901Z,9.70
2023-04-29T10:30:01.203Z,10.07
2023-04-29T10:31:42.513Z,10.51
2023-04-29T10:33:23.893Z,10.85
2023-04-29T10:35:05.283Z,11.01
2023-04-29T10:36:46.554Z,11.15
2023-04-29T10:38:27.870Z,10.44
2023-04-29T10:40:09.239Z,9.99
2023-04-29T10:41:50.541Z,9.97
2023-04-29T10:43:31.855Z,9.88
2023-04-29T10:45:13.172Z,10.27
2023-04-29T10:46:54.510Z,10.55
2023-04-29T10:48:35.878Z,10.55
2023-04-29T10:50:17.155Z,10.35
2023-04-29T10:51:58.471Z,10.46
2023-04-29T10:53:39.756Z,10.61
2023-04-29T10:55:21.057Z,10.79
2023-04-29T10:57:02.382Z,10.40
2023-04-29T10:58:43.669Z,10.08
2023-04-29T11:00:24.970Z,10.68
2023-04-29T11:02:06.290Z,11.17
2023-04-29T11:03:47.962Z,11.05
2023-04-29T11:05:29.458Z,11.42
2023-04-29T11:07:10.757Z,11.14
2023-04-29T11:08:52.089Z,10.72
2023-04-29T11:10:33.413Z,11.30
2023-04-29T11:12:14.733Z,11.69
2023-04-29T11:13:56.115Z,11.86
2023-04-29T11:15:37.480Z,11.31
2023-04-29T11:17:18.797Z,11.68
2023-04-29T11:19:00.125Z,11.71
2023-04-29T11:20:41.428Z,11.66
2023-04-29T11:22:22.746Z,11.51
2023-04-29T11:24:04.009Z,11.38
2023-04-29T11:25:45.325Z,11.51
2023-04-29T11:27:26.619Z,11.73
2023-04-29T11:29:07.912Z,12.01
2023-04-29T11:30:49.243Z,12.25
2023-04-29T11:32:30.695Z,12.37
2023-04-29T11:34:12.220Z,12.44
2023-04-29T11:35:53.531Z,12.52
2023-04-29T11:37:34.801Z,12.69
2023-04-29T11:39:16.092Z,12.60
2023-04-29T11:40:57.426Z,12.62
2023-04-29T11:42:38.718Z,12.58
2023-04-29T11:44:19.993Z,12.52
2023-04-29T11:46:01.339Z,12.58
2023-04-29T11:47:42.751Z,12.53
2023-04-29T11:49:24.025Z,12.22
2023-04-29T11:51:05.363Z,12.09
2023-04-29T11:52:46.654Z,11.43
2023-04-29T11:54:27.956Z,11.35
2023-04-29T11:56:09.230Z,10.86
2023-04-29T11:57:50.539Z,10.93
2023-04-29T11:59:31.821Z,10.28
2023-04-29T12:01:13.092Z,10.00
2023-04-29T12:02:54.595Z,9.87
2023-04-29T12:04:36.172Z,9.95
2023-04-29T12:06:17.576Z,9.88
2023-04-29T12:07:58.898Z,9.71
2023-04-29T12:09:40.188Z,9.71
2023-04-29T12:11:21.476Z,9.72
2023-04-29T12:13:02.805Z,9.87
2023-04-29T12:14:44.172Z,10.01
2023-04-29T12:16:25.486Z,10.08
2023-04-29T12:18:06.845Z,9.85
2023-04-29T12:19:48.189Z,9.89
2023-04-29T12:21:29.453Z,9.83
2023-04-29T12:23:10.788Z,9.79
2023-04-29T12:24:52.327Z,10.43
2023-04-29T12:26:34.118Z,10.35
2023-04-29T12:28:15.404Z,10.02
2023-04-29T12:29:56.754Z,9.67
2023-04-29T12:31:38.087Z,9.82
2023-04-29T12:33:19.384Z,9.76
2023-04-29T12:35:00.721Z,10.17
2023-04-29T12:36:42.043Z,10.02
2023-04-29T12:38:23.622Z,10.34
2023-04-29T12:40:05.186Z,10.40
2023-04-29T12:41:46.469Z,10.08
2023-04-29T12:43:27.791Z,10.00
2023-04-29T12:45:09.816Z,9.85
2023-04-29T12:46:51.489Z,9.86
2023-04-29T12:48:33.369Z,9.87
2023-04-29T12:50:15.088Z,9.68
2023-04-29T12:51:56.370Z,9.72
2023-04-29T12:53:37.674Z,9.94
2023-04-29T12:55:18.941Z,10.16
2023-04-29T12:57:00.332Z,10.04
2023-04-29T12:58:41.736Z,10.00
2023-04-29T13:00:23.330Z,10.54
2023-04-29T13:02:05.024Z,10.78
2023-04-29T13:03:47.097Z,11.20
2023-04-29T13:05:29.098Z,11.11
2023-04-29T13:07:10.710Z,11.42
2023-04-29T13:08:52.429Z,11.32
2023-04-29T13:10:34.054Z,11.54
2023-04-29T13:12:15.551Z,11.75
2023-04-29T13:13:57.341Z,11.70
2023-04-29T13:15:38.894Z,11.56
2023-04-29T13:17:20.193Z,11.49
2023-04-29T13:19:17.016Z,11.49
2023-04-29T13:21:03.676Z,11.54
2023-04-29T13:22:44.972Z,11.07
2023-04-29T13:24:26.299Z,11.17
2023-04-29T13:26:07.612Z,11.40
2023-04-29T13:27:49.714Z,11.25
2023-04-29T13:29:31.274Z,11.53
2023-04-29T13:31:12.545Z,11.79
2023-04-29T13:32:56.693Z,11.69
2023-04-29T13:34:44.971Z,11.76
2023-04-29T13:36:26.514Z,11.66
2023-04-29T13:38:07.837Z,11.85
2023-04-29T13:39:56.840Z,11.80
2023-04-29T13:41:42.207Z,11.98
2023-04-29T13:43:36.606Z,11.89
2023-04-29T13:45:20.437Z,11.92
2023-04-29T13:47:02.093Z,11.28
2023-04-29T13:49:16.093Z,11.46
2023-04-29T13:51:13.791Z,11.26
2023-04-29T13:57:04.713Z,11.20
2023-04-29T13:58:56.212Z,11.43
2023-04-29T14:03:48.134Z,10.81
2023-04-29T14:05:29.924Z,11.06
2023-04-29T14:07:11.777Z,11.00
2023-04-29T14:08:53.307Z,11.07
2023-04-29T14:10:34.765Z,11.13
2023-04-29T14:12:16.261Z,11.14
2023-04-29T14:13:57.628Z,10.67
2023-04-29T14:15:39.175Z,10.80
2023-04-29T14:17:20.703Z,10.58
2023-04-29T14:19:03.844Z,10.87
2023-04-29T14:20:45.452Z,10.80
2023-04-29T14:22:26.978Z,10.90
2023-04-29T14:24:08.536Z,11.08
2023-04-29T14:25:49.859Z,11.24
2023-04-29T14:27:31.429Z,11.57
2023-04-29T14:29:12.967Z,11.75
2023-04-29T14:30:54.550Z,11.74
2023-04-29T14:32:36.121Z,11.72
2023-04-29T14:34:17.466Z,11.76
2023-04-29T14:35:58.752Z,11.67
2023-04-29T14:37:40.402Z,11.84
2023-04-29T14:39:22.039Z,12.08
2023-04-29T14:41:03.315Z,12.02
2023-04-29T14:42:44.825Z,11.71
2023-04-29T14:44:26.410Z,11.93
2023-04-29T14:46:07.949Z,12.07
2023-04-29T14:47:49.526Z,12.02
2023-04-29T14:49:31.802Z,12.08
2023-04-29T14:51:13.476Z,11.91
2023-04-29T14:52:55.159Z,11.78
2023-04-29T14:54:36.717Z,11.86
2023-04-29T14:56:18.201Z,11.88
2023-04-29T14:57:59.560Z,12.09
2023-04-29T14:59:40.864Z,12.07
2023-04-29T15:01:22.968Z,12.10
2023-04-29T15:03:04.873Z,11.96
2023-04-29T15:04:46.614Z,11.92
2023-04-29T15:06:28.006Z,11.87
2023-04-29T15:08:09.316Z,11.86
2023-04-29T15:09:50.886Z,12.00
2023-04-29T15:11:32.413Z,11.98
2023-04-29T15:13:13.921Z,12.07
2023-04-29T15:14:55.825Z,11.89
2023-04-29T15:16:37.381Z,11.93
2023-04-29T15:18:18.728Z,11.91
2023-04-29T15:20:00.349Z,11.88
2023-04-29T15:21:41.900Z,11.91
2023-04-29T15:23:23.436Z,11.85
2023-04-29T15:25:05.063Z,11.94
2023-04-29T15:26:46.644Z,12.04
2023-04-29T15:28:28.038Z,12.09
2023-04-29T15:30:09.363Z,12.03
2023-04-29T15:31:50.752Z,12.15
2023-04-29T15:33:32.073Z,12.34
2023-04-29T15:35:13.544Z,12.42
2023-04-29T15:36:54.947Z,12.47
2023-04-29T15:38:36.454Z,12.51
2023-04-29T15:40:17.967Z,12.56
2023-04-29T15:41:59.398Z,12.57
2023-04-29T15:43:40.730Z,12.34
2023-04-29T15:45:22.098Z,12.01
2023-04-29T15:47:03.413Z,12.01
2023-04-29T15:48:44.724Z,11.64
2023-04-29T15:50:26.011Z,11.92
2023-04-29T15:52:07.292Z,12.18
2023-04-29T15:53:49.815Z,12.17
2023-04-29T15:55:31.088Z,11.44
2023-04-29T15:57:12.375Z,11.15
2023-04-29T15:58:53.674Z,10.78
2023-04-29T16:00:34.993Z,10.40
2023-04-29T16:02:16.944Z,10.11
2023-04-29T16:03:58.553Z,9.99
2023-04-29T16:05:40.164Z,9.90
2023-04-29T16:07:21.813Z,9.25
2023-04-29T16:09:03.270Z,9.26
2023-04-29T16:10:44.584Z,9.38
2023-04-29T16:12:26.030Z,9.18
2023-04-29T16:14:07.296Z,9.49
2023-04-29T16:15:48.564Z,9.72
2023-04-29T16:17:29.920Z,9.12
2023-04-29T16:19:11.968Z,8.88
2023-04-29T16:20:53.427Z,8.93
2023-04-29T16:22:34.745Z,9.17
2023-04-29T16:24:16.046Z,8.56
2023-04-29T16:25:57.762Z,8.54
2023-04-29T16:27:41.922Z,8.45
2023-04-29T16:29:23.264Z,8.59
2023-04-29T16:31:04.571Z,8.82
2023-04-29T16:32:47.146Z,8.58
2023-04-29T16:34:31.446Z,8.47
2023-04-29T16:36:12.731Z,8.43
2023-04-29T16:37:54.100Z,8.06
2023-04-29T16:39:35.636Z,8.00
2023-04-29T16:41:17.143Z,7.94
2023-04-29T16:42:58.514Z,7.86
2023-04-29T16:44:40.004Z,7.88
2023-04-29T16:46:21.535Z,8.15
2023-04-29T16:48:03.141Z,8.10
2023-04-29T16:49:44.819Z,8.16
2023-04-29T16:51:26.230Z,8.11
2023-04-29T16:53:07.548Z,8.68
2023-04-29T16:54:48.834Z,8.38
2023-04-29T16:56:30.158Z,8.51
2023-04-29T16:58:12.248Z,7.94
2023-04-29T16:59:54.131Z,8.03
2023-04-29T17:01:35.741Z,8.16
2023-04-29T17:03:17.155Z,8.19
2023-04-29T17:04:58.935Z,8.31
2023-04-29T17:06:40.714Z,8.12
2023-04-29T17:08:22.267Z,7.92
2023-04-29T17:10:03.573Z,8.00
2023-04-29T17:11:44.912Z,8.13
2023-04-29T17:13:26.218Z,8.38
2023-04-29T17:15:08.100Z,8.17
2023-04-29T17:16:49.648Z,8.67
2023-04-29T17:18:31.290Z,8.56
2023-04-29T17:20:12.645Z,8.65
2023-04-29T17:21:54.009Z,8.40
2023-04-29T17:23:35.292Z,8.24
2023-04-29T17:25:16.585Z,8.39
2023-04-29T17:26:57.880Z,8.11
2023-04-29T17:28:39.176Z,8.27
2023-04-29T17:30:20.467Z,8.46
2023-04-29T17:32:01.795Z,8.48
2023-04-29T17:33:43.404Z,8.28
2023-04-29T17:35:24.911Z,8.44
2023-04-29T17:37:06.519Z,8.83
2023-04-29T17:38:48.189Z,9.07
2023-04-29T17:40:29.592Z,9.46
2023-04-29T17:42:10.879Z,9.33
2023-04-29T17:43:52.183Z,9.25
2023-04-29T17:45:33.554Z,9.39
2023-04-29T17:47:14.884Z,9.61
2023-04-29T17:48:56.339Z,9.71
2023-04-29T17:50:37.658Z,9.55
2023-04-29T17:52:19.034Z,9.63
2023-04-29T17:54:00.980Z,9.56
2023-04-29T17:55:42.568Z,9.52
2023-04-29T17:57:23.880Z,9.64
2023-04-29T17:59:05.184Z,9.85
2023-04-29T18:00:46.570Z,10.13
2023-04-29T18:02:28.029Z,10.31
2023-04-29T18:04:09.416Z,9.96
2023-04-29T18:05:50.863Z,9.36
2023-04-29T18:07:32.271Z,9.14
2023-04-29T18:09:13.610Z,8.94
2023-04-29T18:10:54.877Z,8.97
2023-04-29T18:12:36.176Z,9.13
2023-04-29T18:14:17.443Z,9.12
2023-04-29T18:15:58.729Z,8.53
2023-04-29T18:17:40.120Z,8.66
2023-04-29T18:19:21.442Z,8.61
2023-04-29T18:21:02.951Z,8.47
2023-04-29T18:22:44.528Z,8.52
2023-04-29T18:24:25.883Z,8.38
2023-04-29T18:26:07.163Z,8.17
2023-04-29T18:27:48.430Z,8.21
2023-04-29T18:29:29.747Z,8.19
2023-04-29T18:31:11.026Z,8.14
2023-04-29T18:32:52.348Z,7.95
2023-04-29T18:34:33.661Z,8.20
2023-04-29T18:36:14.963Z,8.05
2023-04-29T18:37:56.924Z,8.04
2023-04-29T18:39:38.583Z,7.78
2023-04-29T18:41:19.868Z,7.74
2023-04-29T18:43:01.140Z,8.04
2023-04-29T18:44:42.481Z,7.88
2023-04-29T18:46:23.829Z,7.60
2023-04-29T18:48:05.202Z,7.85
2023-04-29T18:49:46.572Z,7.99
2023-04-29T18:51:27.873Z,8.10
2023-04-29T18:53:09.182Z,7.85
2023-04-29T18:54:50.501Z,7.74
2023-04-29T18:56:31.818Z,7.69
2023-04-29T18:58:13.094Z,7.79
2023-04-29T18:59:54.565Z,7.76
2023-04-29T19:01:36.122Z,7.81
2023-04-29T19:03:18.087Z,7.50
2023-04-29T19:05:00.355Z,7.49
2023-04-29T19:06:42.255Z,7.51
2023-04-29T19:08:23.677Z,7.70
2023-04-29T19:10:05.334Z,7.52
2023-04-29T19:11:46.953Z,7.98
2023-04-29T19:13:28.350Z,8.31
2023-04-29T19:15:09.672Z,8.63
2023-04-29T19:16:50.972Z,8.74
2023-04-29T19:18:32.275Z,8.87
2023-04-29T19:20:13.642Z,9.07
2023-04-29T19:21:55.547Z,9.12
2023-04-29T19:23:37.040Z,8.53
2023-04-29T19:25:18.352Z,7.87
2023-04-29T19:26:59.631Z,7.62
2023-04-29T19:28:41.265Z,7.77
2023-04-29T19:30:23.032Z,7.92
2023-04-29T19:32:04.581Z,8.09
2023-04-29T19:33:46.091Z,8.49
2023-04-29T19:35:27.647Z,8.46
2023-04-29T19:37:08.917Z,8.62
2023-04-29T19:38:50.494Z,8.82
2023-04-29T19:40:32.073Z,8.88
2023-04-29T19:42:13.346Z,8.92
2023-04-29T19:43:54.683Z,9.02
2023-04-29T19:45:35.990Z,9.01
2023-04-29T19:47:17.296Z,8.83
2023-04-29T19:48:59.290Z,7.94
2023-04-29T19:50:41.101Z,7.64
2023-04-29T19:52:22.522Z,7.78
2023-04-29T19:54:03.960Z,7.95
2023-04-29T19:55:45.403Z,8.44
2023-04-29T19:57:26.720Z,8.40
2023-04-29T19:59:07.985Z,8.57
2023-04-29T20:00:49.607Z,8.34
2023-04-29T20:02:31.229Z,8.27
2023-04-29T20:04:12.888Z,8.29
2023-04-29T20:05:54.262Z,7.77
2023-04-29T20:07:35.604Z,7.44
2023-04-29T20:09:16.933Z,7.46
2023-04-29T20:10:58.507Z,7.63
2023-04-29T20:12:40.223Z,7.76
2023-04-29T20:14:21.669Z,7.74
2023-04-29T20:16:02.977Z,7.04
2023-04-29T20:17:44.369Z,7.29
2023-04-29T20:19:25.671Z,6.68
2023-04-29T20:21:07.611Z,6.60
2023-04-29T20:22:49.066Z,6.61
2023-04-29T20:24:30.563Z,6.76
2023-04-29T20:26:12.346Z,6.64
2023-04-29T20:27:53.844Z,6.69
2023-04-29T20:29:35.399Z,6.57
2023-04-29T20:31:16.913Z,6.74
2023-04-29T20:32:58.203Z,6.58
2023-04-29T20:34:39.773Z,6.34
2023-04-29T20:36:21.311Z,6.36
2023-04-29T20:38:02.785Z,6.53
2023-04-29T20:39:44.482Z,6.33
2023-04-29T20:41:26.142Z,6.37
2023-04-29T20:43:07.564Z,6.57
2023-04-29T20:44:48.901Z,6.90
2023-04-29T20:46:30.471Z,7.15
2023-04-29T20:48:11.970Z,6.92
2023-04-29T20:49:53.458Z,6.83
2023-04-29T20:51:35.141Z,6.54
2023-04-29T20:53:16.451Z,6.62
2023-04-29T20:54:57.745Z,7.20
2023-04-29T20:56:39.067Z,7.26
2023-04-29T20:58:20.560Z,7.34
2023-04-29T21:00:02.076Z,7.10
2023-04-29T21:01:43.467Z,7.20
2023-04-29T21:03:24.776Z,6.89
2023-04-29T21:05:06.261Z,6.93
2023-04-29T21:06:47.706Z,7.52
2023-04-29T21:08:29.050Z,7.72
2023-04-29T21:10:10.341Z,7.87
2023-04-29T21:11:51.615Z,7.79
2023-04-29T21:13:33.116Z,7.67
2023-04-29T21:15:15.120Z,7.30
2023-04-29T21:16:56.574Z,7.29
2023-04-29T21:18:37.972Z,7.42
2023-04-29T21:20:19.260Z,6.85
2023-04-29T21:22:00.844Z,6.94
2023-04-29T21:23:42.530Z,6.86
2023-04-29T21:25:23.919Z,6.67
2023-04-29T21:27:05.229Z,6.14
2023-04-29T21:28:46.511Z,5.63
2023-04-29T21:30:27.788Z,5.85
2023-04-29T21:32:09.072Z,5.87
2023-04-29T21:33:50.343Z,6.01
2023-04-29T21:35:32.273Z,6.23
2023-04-29T21:37:13.865Z,5.73
2023-04-29T21:38:55.185Z,5.87
2023-04-29T21:40:36.670Z,5.68
2023-04-29T21:42:18.222Z,5.43
2023-04-29T21:43:59.771Z,5.40
2023-04-29T21:45:41.255Z,5.51
2023-04-29T21:47:22.706Z,5.59
2023-04-29T21:49:04.782Z,5.62
2023-04-29T21:50:46.303Z,5.62
2023-04-29T21:52:27.584Z,5.84
2023-04-29T21:54:08.939Z,6.31
2023-04-29T21:55:50.255Z,6.77
2023-04-29T21:57:42.717Z,7.02
2023-04-29T21:59:24.915Z,7.31
2023-04-29T22:01:06.305Z,7.26
2023-04-29T22:02:47.679Z,7.43
2023-04-29T22:04:29.075Z,7.46
2023-04-29T22:06:10.417Z,7.27
2023-04-29T22:07:51.718Z,7.11
2023-04-29T22:09:33.723Z,6.82
2023-04-29T22:11:15.227Z,6.33
2023-04-29T22:12:56.586Z,6.29
2023-04-29T22:14:37.899Z,6.41
2023-04-29T22:16:19.480Z,6.45
2023-04-29T22:18:01.064Z,6.56
2023-04-29T22:19:42.484Z,6.44
2023-04-29T22:21:23.757Z,6.14
2023-04-29T22:23:05.077Z,5.94
2023-04-29T22:24:46.464Z,5.95
2023-04-29T22:26:27.826Z,5.90
2023-04-29T22:28:09.225Z,5.98
2023-04-29T22:29:50.548Z,6.24
2023-04-29T22:31:51.837Z,6.33